Blackfish, Arkansas
Current Conditions -  °F | °C
As of 3:53 AM on Friday 28 Nov 2014 (Local Time) from KAWM Reporting Station
Clear Clear  
Wind Chill: -5°   Ceiling: Unl
Heat Index: -1°   Visibility: 10mi
Dew Point: -3°   Wind: 8mph
Humidity: 88%   Direction: 140°SE
Pressure: 30.41"   Gusts: NA
Location:  35.0663°N, 90.4665°W
Report Text: KAWM 280953Z AUTO 14007KT 10SM CLR M01/M03 A3041 RMK AO2 SLP299 T10111028
Loading
Personal Weather Stations






























Interactive Weather Map New forecast layout! Learn more

10-Day Weather Forecast

Advertisements
Track Severe Weather on mobile